sensor_id;sensor_type;location;lat;lon;timestamp;pressure;altitude;pressure_sealevel;temperature;humidity
40708;BME280;26392;42.696;23.350;2023-04-08T00:00:05;95382.34;;;5.86;86.48
40708;BME280;26392;42.696;23.350;2023-04-08T00:02:32;95390.94;;;6.01;85.81
40708;BME280;26392;42.696;23.350;2023-04-08T00:04:58;95384.09;;;6.17;84.72
40708;BME280;26392;42.696;23.350;2023-04-08T00:07:23;95386.19;;;6.15;84.73
40708;BME280;26392;42.696;23.350;2023-04-08T00:09:49;95389.22;;;6.07;85.06
40708;BME280;26392;42.696;23.350;2023-04-08T00:12:14;95387.03;;;5.97;86.07
40708;BME280;26392;42.696;23.350;2023-04-08T00:14:39;95394.97;;;5.92;87.89
40708;BME280;26392;42.696;23.350;2023-04-08T00:17:06;95376.16;;;5.79;88.68
40708;BME280;26392;42.696;23.350;2023-04-08T00:19:31;95379.78;;;5.91;88.83
40708;BME280;26392;42.696;23.350;2023-04-08T00:21:57;95385.84;;;6.12;87.82
40708;BME280;26392;42.696;23.350;2023-04-08T00:24:23;95382.38;;;6.23;88.10
40708;BME280;26392;42.696;23.350;2023-04-08T00:26:48;95370.13;;;6.20;88.16
40708;BME280;26392;42.696;23.350;2023-04-08T00:29:14;95379.53;;;6.18;86.16
40708;BME280;26392;42.696;23.350;2023-04-08T00:31:40;95384.41;;;6.09;85.46
40708;BME280;26392;42.696;23.350;2023-04-08T00:34:06;95356.94;;;5.87;87.36
40708;BME280;26392;42.696;23.350;2023-04-08T00:36:31;95384.97;;;5.93;88.79
40708;BME280;26392;42.696;23.350;2023-04-08T00:38:57;95388.69;;;5.73;91.38
40708;BME280;26392;42.696;23.350;2023-04-08T00:41:22;95384.72;;;5.76;93.21
40708;BME280;26392;42.696;23.350;2023-04-08T00:43:47;95393.72;;;5.70;94.72
40708;BME280;26392;42.696;23.350;2023-04-08T00:46:13;95383.19;;;5.61;96.21
40708;BME280;26392;42.696;23.350;2023-04-08T00:48:38;95385.69;;;5.63;97.13
40708;BME280;26392;42.696;23.350;2023-04-08T00:51:04;95387.81;;;5.54;98.24
40708;BME280;26392;42.696;23.350;2023-04-08T00:53:30;95391.97;;;5.57;98.92
40708;BME280;26392;42.696;23.350;2023-04-08T00:55:56;95389.06;;;5.33;100.00
40708;BME280;26392;42.696;23.350;2023-04-08T00:58:22;95394.53;;;5.27;100.00
40708;BME280;26392;42.696;23.350;2023-04-08T01:00:57;95388.16;;;5.14;100.00
40708;BME280;26392;42.696;23.350;2023-04-08T01:03:37;95387.50;;;5.19;100.00
40708;BME280;26392;42.696;23.350;2023-04-08T01:06:21;95393.91;;;5.25;100.00
40708;BME280;26392;42.696;23.350;2023-04-08T01:08:51;95401.41;;;5.23;100.00
40708;BME280;26392;42.696;23.350;2023-04-08T01:11:17;95398.44;;;5.31;100.00
40708;BME280;26392;42.696;23.350;2023-04-08T01:13:45;95392.84;;;5.26;100.00
40708;BME280;26392;42.696;23.350;2023-04-08T01:16:13;95397.94;;;5.41;100.00
40708;BME280;26392;42.696;23.350;2023-04-08T01:18:42;95397.06;;;5.47;100.00
40708;BME280;26392;42.696;23.350;2023-04-08T01:21:10;95382.38;;;5.36;100.00
40708;BME280;26392;42.696;23.350;2023-04-08T01:23:48;95397.38;;;5.32;100.00
40708;BME280;26392;42.696;23.350;2023-04-08T01:26:22;95388.84;;;5.35;100.00
40708;BME280;26392;42.696;23.350;2023-04-08T01:28:52;95398.59;;;5.36;100.00
40708;BME280;26392;42.696;23.350;2023-04-08T01:31:18;95391.13;;;5.38;100.00
40708;BME280;26392;42.696;23.350;2023-04-08T01:33:45;95386.00;;;5.23;100.00
40708;BME280;26392;42.696;23.350;2023-04-08T01:36:12;95388.06;;;5.28;100.00
40708;BME280;26392;42.696;23.350;2023-04-08T01:38:38;95376.91;;;5.18;100.00
40708;BME280;26392;42.696;23.350;2023-04-08T01:41:04;95394.66;;;5.07;100.00
40708;BME280;26392;42.696;23.350;2023-04-08T01:43:32;95402.06;;;5.18;100.00
40708;BME280;26392;42.696;23.350;2023-04-08T01:45:59;95405.50;;;5.00;100.00
40708;BME280;26392;42.696;23.350;2023-04-08T01:48:27;95398.31;;;5.19;100.00
40708;BME280;26392;42.696;23.350;2023-04-08T01:50:53;95393.66;;;5.33;100.00
40708;BME280;26392;42.696;23.350;2023-04-08T01:53:19;95400.59;;;5.47;100.00
40708;BME280;26392;42.696;23.350;2023-04-08T01:55:45;95395.19;;;5.47;100.00
40708;BME280;26392;42.696;23.350;2023-04-08T01:58:17;95405.09;;;5.53;100.00
40708;BME280;26392;42.696;23.350;2023-04-08T02:00:44;95398.09;;;5.46;100.00
40708;BME280;26392;42.696;23.350;2023-04-08T02:03:11;95401.06;;;5.37;100.00
40708;BME280;26392;42.696;23.350;2023-04-08T02:05:38;95416.47;;;5.37;100.00
40708;BME280;26392;42.696;23.350;2023-04-08T02:08:04;95409.63;;;5.34;100.00
40708;BME280;26392;42.696;23.350;2023-04-08T02:10:29;95429.72;;;5.13;100.00
40708;BME280;26392;42.696;23.350;2023-04-08T02:12:55;95416.38;;;4.87;100.00
40708;BME280;26392;42.696;23.350;2023-04-08T02:15:21;95424.34;;;4.75;100.00
40708;BME280;26392;42.696;23.350;2023-04-08T02:17:59;95434.31;;;4.75;100.00
40708;BME280;26392;42.696;23.350;2023-04-08T02:20:34;95427.66;;;4.77;100.00
40708;BME280;26392;42.696;23.350;2023-04-08T02:25:33;95430.13;;;4.79;100.00
40708;BME280;26392;42.696;23.350;2023-04-08T02:28:02;95426.03;;;4.76;100.00
40708;BME280;26392;42.696;23.350;2023-04-08T02:30:30;95422.88;;;4.79;100.00
40708;BME280;26392;42.696;23.350;2023-04-08T02:32:57;95425.91;;;4.96;100.00
40708;BME280;26392;42.696;23.350;2023-04-08T02:35:22;95425.03;;;5.02;100.00
40708;BME280;26392;42.696;23.350;2023-04-08T02:37:49;95427.16;;;4.93;100.00
40708;BME280;26392;42.696;23.350;2023-04-08T02:40:25;95427.34;;;4.99;100.00
40708;BME280;26392;42.696;23.350;2023-04-08T02:42:51;95423.16;;;5.03;100.00
40708;BME280;26392;42.696;23.350;2023-04-08T02:45:17;95429.56;;;5.08;100.00
40708;BME280;26392;42.696;23.350;2023-04-08T02:47:43;95428.94;;;5.06;100.00
40708;BME280;26392;42.696;23.350;2023-04-08T02:50:09;95424.97;;;5.09;100.00
40708;BME280;26392;42.696;23.350;2023-04-08T02:52:34;95429.06;;;5.18;100.00
40708;BME280;26392;42.696;23.350;2023-04-08T02:55:00;95424.97;;;5.09;100.00
40708;BME280;26392;42.696;23.350;2023-04-08T02:57:25;95419.84;;;5.01;100.00
40708;BME280;26392;42.696;23.350;2023-04-08T02:59:51;95430.81;;;5.06;100.00
40708;BME280;26392;42.696;23.350;2023-04-08T03:02:16;95420.41;;;5.09;100.00
40708;BME280;26392;42.696;23.350;2023-04-08T03:04:41;95433.63;;;5.18;100.00
40708;BME280;26392;42.696;23.350;2023-04-08T03:07:07;95439.44;;;5.21;100.00
40708;BME280;26392;42.696;23.350;2023-04-08T03:09:32;95431.34;;;5.21;100.00
40708;BME280;26392;42.696;23.350;2023-04-08T03:11:57;95433.44;;;5.19;100.00
40708;BME280;26392;42.696;23.350;2023-04-08T03:14:23;95424.97;;;5.09;100.00
40708;BME280;26392;42.696;23.350;2023-04-08T03:16:48;95415.88;;;5.03;100.00
40708;BME280;26392;42.696;23.350;2023-04-08T03:19:14;95423.53;;;5.06;100.00
40708;BME280;26392;42.696;23.350;2023-04-08T03:21:39;95417.06;;;5.14;100.00
40708;BME280;26392;42.696;23.350;2023-04-08T03:24:05;95421.25;;;5.10;100.00
40708;BME280;26392;42.696;23.350;2023-04-08T03:26:30;95424.53;;;5.12;100.00
40708;BME280;26392;42.696;23.350;2023-04-08T03:28:55;95428.94;;;5.06;100.00
40708;BME280;26392;42.696;23.350;2023-04-08T03:31:21;95427.28;;;5.05;100.00
40708;BME280;26392;42.696;23.350;2023-04-08T03:33:46;95419.19;;;5.05;100.00
40708;BME280;26392;42.696;23.350;2023-04-08T03:36:12;95424.41;;;5.00;100.00
40708;BME280;26392;42.696;23.350;2023-04-08T03:38:37;95436.59;;;5.09;100.00
40708;BME280;26392;42.696;23.350;2023-04-08T03:41:03;95439.03;;;5.18;100.00
40708;BME280;26392;42.696;23.350;2023-04-08T03:43:28;95428.28;;;5.11;100.00
40708;BME280;26392;42.696;23.350;2023-04-08T03:45:54;95433.63;;;5.18;100.00
40708;BME280;26392;42.696;23.350;2023-04-08T03:48:20;95439.88;;;5.18;100.00
40708;BME280;26392;42.696;23.350;2023-04-08T03:50:45;95434.53;;;5.11;100.00
40708;BME280;26392;42.696;23.350;2023-04-08T03:53:11;95428.91;;;5.13;100.00
40708;BME280;26392;42.696;23.350;2023-04-08T03:55:37;95419.25;;;4.99;100.00
40708;BME280;26392;42.696;23.350;2023-04-08T03:58:03;95430.75;;;5.12;100.00
40708;BME280;26392;42.696;23.350;2023-04-08T04:00:28;95422.66;;;5.12;100.00
40708;BME280;26392;42.696;23.350;2023-04-08T04:02:54;95414.34;;;5.14;100.00
40708;BME280;26392;42.696;23.350;2023-04-08T04:05:20;95419.38;;;5.10;100.00
40708;BME280;26392;42.696;23.350;2023-04-08T04:07:46;95424.53;;;5.12;100.00
40708;BME280;26392;42.696;23.350;2023-04-08T04:10:11;95426.41;;;5.11;100.00
40708;BME280;26392;42.696;23.350;2023-04-08T04:12:36;95422.06;;;5.10;100.00
40708;BME280;26392;42.696;23.350;2023-04-08T04:15:02;95419.38;;;5.10;100.00
40708;BME280;26392;42.696;23.350;2023-04-08T04:17:28;95423.28;;;5.14;100.00
40708;BME280;26392;42.696;23.350;2023-04-08T04:19:53;95438.56;;;5.27;100.00
40708;BME280;26392;42.696;23.350;2023-04-08T04:22:19;95440.59;;;5.32;100.00
40708;BME280;26392;42.696;23.350;2023-04-08T04:24:48;95448.69;;;5.32;100.00
40708;BME280;26392;42.696;23.350;2023-04-08T04:27:14;95442.22;;;5.39;100.00
40708;BME280;26392;42.696;23.350;2023-04-08T04:29:42;95424.72;;;5.42;100.00
40708;BME280;26392;42.696;23.350;2023-04-08T04:32:07;95441.56;;;5.44;100.00
40708;BME280;26392;42.696;23.350;2023-04-08T04:34:33;95436.97;;;5.45;100.00
40708;BME280;26392;42.696;23.350;2023-04-08T04:36:58;95439.31;;;5.41;100.00
40708;BME280;26392;42.696;23.350;2023-04-08T04:39:24;95451.09;;;5.47;100.00
40708;BME280;26392;42.696;23.350;2023-04-08T04:41:49;95438.59;;;5.52;100.00
40708;BME280;26392;42.696;23.350;2023-04-08T04:44:15;95449.28;;;5.41;100.00
40708;BME280;26392;42.696;23.350;2023-04-08T04:46:40;95450.69;;;5.43;100.00
40708;BME280;26392;42.696;23.350;2023-04-08T04:49:06;95450.06;;;5.48;100.00
40708;BME280;26392;42.696;23.350;2023-04-08T04:51:31;95432.94;;;5.54;100.00
40708;BME280;26392;42.696;23.350;2023-04-08T04:54:00;95436.78;;;5.46;100.00
40708;BME280;26392;42.696;23.350;2023-04-08T04:56:25;95443.38;;;5.50;100.00
40708;BME280;26392;42.696;23.350;2023-04-08T04:58:51;95434.34;;;5.38;100.00
40708;BME280;26392;42.696;23.350;2023-04-08T05:01:16;95440.47;;;5.52;100.00
40708;BME280;26392;42.696;23.350;2023-04-08T05:03:42;95446.81;;;5.64;100.00
40708;BME280;26392;42.696;23.350;2023-04-08T05:06:07;95447.78;;;5.70;100.00
40708;BME280;26392;42.696;23.350;2023-04-08T05:08:33;95442.56;;;5.75;100.00
40708;BME280;26392;42.696;23.350;2023-04-08T05:10:58;95447.84;;;5.88;100.00
40708;BME280;26392;42.696;23.350;2023-04-08T05:13:27;95441.16;;;5.91;100.00
40708;BME280;26392;42.696;23.350;2023-04-08T05:15:52;95443.03;;;5.90;100.00
40708;BME280;26392;42.696;23.350;2023-04-08T05:18:18;95440.94;;;5.92;100.00
40708;BME280;26392;42.696;23.350;2023-04-08T05:20:44;95450.50;;;5.95;100.00
40708;BME280;26392;42.696;23.350;2023-04-08T05:23:09;95449.78;;;6.06;99.52
40708;BME280;26392;42.696;23.350;2023-04-08T05:25:35;95449.53;;;6.08;98.82
40708;BME280;26392;42.696;23.350;2023-04-08T05:28:00;95450.84;;;6.23;96.81
40708;BME280;26392;42.696;23.350;2023-04-08T05:30:26;95447.19;;;6.36;96.33
40708;BME280;26392;42.696;23.350;2023-04-08T05:32:51;95446.13;;;6.56;95.08
40708;BME280;26392;42.696;23.350;2023-04-08T05:35:16;95447.22;;;6.66;94.69
40708;BME280;26392;42.696;23.350;2023-04-08T05:37:42;95443.22;;;6.87;91.45
40708;BME280;26392;42.696;23.350;2023-04-08T05:40:08;95452.94;;;7.07;88.21
40708;BME280;26392;42.696;23.350;2023-04-08T05:42:33;95450.38;;;7.12;86.79
40708;BME280;26392;42.696;23.350;2023-04-08T05:44:59;95455.09;;;7.16;86.68
40708;BME280;26392;42.696;23.350;2023-04-08T05:47:24;95440.88;;;7.21;85.42
40708;BME280;26392;42.696;23.350;2023-04-08T05:49:50;95450.81;;;7.39;85.60
40708;BME280;26392;42.696;23.350;2023-04-08T05:52:15;95449.63;;;7.35;84.50
40708;BME280;26392;42.696;23.350;2023-04-08T05:54:44;95432.22;;;7.43;85.03
40708;BME280;26392;42.696;23.350;2023-04-08T05:57:10;95437.84;;;7.41;85.26
40708;BME280;26392;42.696;23.350;2023-04-08T05:59:35;95425.59;;;7.38;84.75
40708;BME280;26392;42.696;23.350;2023-04-08T06:02:01;95439.56;;;7.66;84.03
40708;BME280;26392;42.696;23.350;2023-04-08T06:04:26;95445.31;;;7.69;83.24
40708;BME280;26392;42.696;23.350;2023-04-08T06:06:52;95441.31;;;7.72;82.45
40708;BME280;26392;42.696;23.350;2023-04-08T06:09:17;95441.94;;;7.85;81.81
40708;BME280;26392;42.696;23.350;2023-04-08T06:11:43;95438.75;;;7.89;81.56
40708;BME280;26392;42.696;23.350;2023-04-08T06:14:08;95439.56;;;7.89;81.67
40708;BME280;26392;42.696;23.350;2023-04-08T06:16:33;95434.00;;;7.84;82.01
40708;BME280;26392;42.696;23.350;2023-04-08T06:18:59;95451.72;;;7.87;82.87
40708;BME280;26392;42.696;23.350;2023-04-08T06:21:24;95441.94;;;7.74;84.38
40708;BME280;26392;42.696;23.350;2023-04-08T06:23:50;95435.81;;;8.02;84.27
40708;BME280;26392;42.696;23.350;2023-04-08T06:26:16;95444.19;;;8.24;82.10
40708;BME280;26392;42.696;23.350;2023-04-08T06:28:42;95449.59;;;8.12;82.25
40708;BME280;26392;42.696;23.350;2023-04-08T06:31:07;95443.25;;;8.42;81.95
40708;BME280;26392;42.696;23.350;2023-04-08T06:33:33;95440.38;;;8.60;80.41
40708;BME280;26392;42.696;23.350;2023-04-08T06:36:05;95444.22;;;8.88;79.01
40708;BME280;26392;42.696;23.350;2023-04-08T06:38:31;95437.16;;;9.04;78.86
40708;BME280;26392;42.696;23.350;2023-04-08T06:41:06;95448.94;;;9.38;75.65
40708;BME280;26392;42.696;23.350;2023-04-08T06:43:33;95451.13;;;9.53;73.92
40708;BME280;26392;42.696;23.350;2023-04-08T06:45:59;95454.88;;;9.80;73.81
40708;BME280;26392;42.696;23.350;2023-04-08T06:48:24;95444.63;;;9.88;72.43
40708;BME280;26392;42.696;23.350;2023-04-08T06:50:58;95453.88;;;9.70;73.12
40708;BME280;26392;42.696;23.350;2023-04-08T06:53:25;95456.22;;;9.49;74.33
40708;BME280;26392;42.696;23.350;2023-04-08T06:55:52;95459.00;;;9.37;76.29
40708;BME280;26392;42.696;23.350;2023-04-08T06:58:17;95452.06;;;9.30;77.33
40708;BME280;26392;42.696;23.350;2023-04-08T07:00:43;95442.59;;;9.32;77.50
40708;BME280;26392;42.696;23.350;2023-04-08T07:03:08;95442.56;;;9.44;77.98
40708;BME280;26392;42.696;23.350;2023-04-08T07:05:35;95448.44;;;9.70;77.30
40708;BME280;26392;42.696;23.350;2023-04-08T07:08:01;95446.44;;;9.99;75.54
40708;BME280;26392;42.696;23.350;2023-04-08T07:10:26;95450.97;;;10.10;74.64
40708;BME280;26392;42.696;23.350;2023-04-08T07:12:52;95447.25;;;10.33;72.88
40708;BME280;26392;42.696;23.350;2023-04-08T07:15:18;95455.97;;;10.52;70.97
40708;BME280;26392;42.696;23.350;2023-04-08T07:17:43;95449.44;;;10.31;70.82
40708;BME280;26392;42.696;23.350;2023-04-08T07:20:09;95453.72;;;10.27;70.36
40708;BME280;26392;42.696;23.350;2023-04-08T07:22:35;95443.13;;;10.30;70.28
40708;BME280;26392;42.696;23.350;2023-04-08T07:25:00;95452.16;;;10.31;70.19
40708;BME280;26392;42.696;23.350;2023-04-08T07:27:27;95458.56;;;10.42;69.34
40708;BME280;26392;42.696;23.350;2023-04-08T07:29:52;95454.72;;;10.60;67.75
40708;BME280;26392;42.696;23.350;2023-04-08T07:32:21;95462.03;;;10.76;67.39
40708;BME280;26392;42.696;23.350;2023-04-08T07:34:46;95457.22;;;10.83;66.92
40708;BME280;26392;42.696;23.350;2023-04-08T07:37:12;95455.75;;;10.97;66.70
40708;BME280;26392;42.696;23.350;2023-04-08T07:39:37;95456.25;;;10.94;66.31
40708;BME280;26392;42.696;23.350;2023-04-08T07:42:02;95469.28;;;10.87;68.00
40708;BME280;26392;42.696;23.350;2023-04-08T07:44:28;95463.16;;;10.80;69.08
40708;BME280;26392;42.696;23.350;2023-04-08T07:46:53;95468.66;;;10.63;69.69
40708;BME280;26392;42.696;23.350;2023-04-08T07:49:19;95466.97;;;10.79;70.16
40708;BME280;26392;42.696;23.350;2023-04-08T07:51:44;95474.06;;;10.80;70.83
40708;BME280;26392;42.696;23.350;2023-04-08T07:54:09;95464.38;;;10.89;68.87
40708;BME280;26392;42.696;23.350;2023-04-08T07:56:36;95479.84;;;10.84;68.48
40708;BME280;26392;42.696;23.350;2023-04-08T07:59:05;95477.91;;;11.01;69.06
40708;BME280;26392;42.696;23.350;2023-04-08T08:01:31;95480.72;;;11.11;67.10
40708;BME280;26392;42.696;23.350;2023-04-08T08:03:59;95466.22;;;11.06;66.60
40708;BME280;26392;42.696;23.350;2023-04-08T08:06:25;95486.28;;;10.22;71.22
40708;BME280;26392;42.696;23.350;2023-04-08T08:08:51;95470.63;;;10.12;71.97
40708;BME280;26392;42.696;23.350;2023-04-08T08:11:17;95493.91;;;10.37;70.50
40708;BME280;26392;42.696;23.350;2023-04-08T08:13:43;95492.59;;;10.61;69.02
40708;BME280;26392;42.696;23.350;2023-04-08T08:16:08;95495.19;;;10.68;68.88
40708;BME280;26392;42.696;23.350;2023-04-08T08:18:36;95492.78;;;11.15;67.09
40708;BME280;26392;42.696;23.350;2023-04-08T08:21:02;95492.00;;;11.42;64.28
40708;BME280;26392;42.696;23.350;2023-04-08T08:23:27;95488.97;;;11.16;65.16
40708;BME280;26392;42.696;23.350;2023-04-08T08:26:03;95490.94;;;10.77;66.42
40708;BME280;26392;42.696;23.350;2023-04-08T08:28:29;95483.78;;;10.93;66.88
40708;BME280;26392;42.696;23.350;2023-04-08T08:30:54;95488.91;;;10.89;65.18
40708;BME280;26392;42.696;23.350;2023-04-08T08:33:19;95494.19;;;10.96;66.07
40708;BME280;26392;42.696;23.350;2023-04-08T08:35:45;95468.81;;;11.17;64.37
40708;BME280;26392;42.696;23.350;2023-04-08T08:38:11;95492.78;;;11.37;63.49
40708;BME280;26392;42.696;23.350;2023-04-08T08:40:38;95490.59;;;11.39;63.97
40708;BME280;26392;42.696;23.350;2023-04-08T08:43:03;95497.41;;;11.64;64.00
40708;BME280;26392;42.696;23.350;2023-04-08T08:45:29;95492.81;;;11.42;62.99
40708;BME280;26392;42.696;23.350;2023-04-08T08:47:55;95502.16;;;11.03;65.16
40708;BME280;26392;42.696;23.350;2023-04-08T08:50:21;95487.06;;;11.39;64.61
40708;BME280;26392;42.696;23.350;2023-04-08T08:52:50;95493.25;;;11.83;63.47
40708;BME280;26392;42.696;23.350;2023-04-08T08:55:19;95492.03;;;11.96;62.55
40708;BME280;26392;42.696;23.350;2023-04-08T08:57:45;95502.22;;;12.06;62.19
40708;BME280;26392;42.696;23.350;2023-04-08T09:00:11;95492.81;;;11.42;63.78
40708;BME280;26392;42.696;23.350;2023-04-08T09:02:40;95500.47;;;11.18;65.15
40708;BME280;26392;42.696;23.350;2023-04-08T09:05:05;95498.47;;;11.14;65.73
40708;BME280;26392;42.696;23.350;2023-04-08T09:07:35;95500.31;;;11.08;66.78
40708;BME280;26392;42.696;23.350;2023-04-08T09:10:01;95499.88;;;10.94;67.58
40708;BME280;26392;42.696;23.350;2023-04-08T09:12:27;95499.06;;;11.16;67.76
40708;BME280;26392;42.696;23.350;2023-04-08T09:15:03;95501.19;;;11.36;66.66
40708;BME280;26392;42.696;23.350;2023-04-08T09:17:39;95483.38;;;11.28;66.96
40708;BME280;26392;42.696;23.350;2023-04-08T09:20:06;95496.06;;;11.39;66.26
40708;BME280;26392;42.696;23.350;2023-04-08T09:22:58;95497.06;;;11.82;63.88
40708;BME280;26392;42.696;23.350;2023-04-08T09:25:28;95490.59;;;11.89;62.54
40708;BME280;26392;42.696;23.350;2023-04-08T09:27:55;95492.06;;;12.01;61.59
40708;BME280;26392;42.696;23.350;2023-04-08T09:30:22;95491.59;;;12.09;62.02
40708;BME280;26392;42.696;23.350;2023-04-08T09:32:53;95490.00;;;12.51;60.76
40708;BME280;26392;42.696;23.350;2023-04-08T09:35:19;95479.44;;;12.65;59.23
40708;BME280;26392;42.696;23.350;2023-04-08T09:37:45;95483.91;;;12.39;60.99
40708;BME280;26392;42.696;23.350;2023-04-08T09:40:11;95473.00;;;11.79;60.62
40708;BME280;26392;42.696;23.350;2023-04-08T09:42:39;95482.28;;;12.05;61.01
40708;BME280;26392;42.696;23.350;2023-04-08T09:45:06;95481.63;;;11.93;61.07
40708;BME280;26392;42.696;23.350;2023-04-08T09:50:26;95487.00;;;12.15;62.42
40708;BME280;26392;42.696;23.350;2023-04-08T09:53:00;95470.19;;;11.96;62.39
40708;BME280;26392;42.696;23.350;2023-04-08T09:55:27;95472.75;;;11.54;64.89
40708;BME280;26392;42.696;23.350;2023-04-08T09:57:58;95464.19;;;11.18;65.89
40708;BME280;26392;42.696;23.350;2023-04-08T10:00:33;95468.13;;;11.54;64.81
40708;BME280;26392;42.696;23.350;2023-04-08T10:05:37;95465.22;;;11.39;65.29
40708;BME280;26392;42.696;23.350;2023-04-08T10:08:04;95449.91;;;11.60;65.18
40708;BME280;26392;42.696;23.350;2023-04-08T10:10:30;95452.81;;;11.80;64.41
40708;BME280;26392;42.696;23.350;2023-04-08T10:12:56;95456.31;;;11.76;63.43
40708;BME280;26392;42.696;23.350;2023-04-08T10:17:49;95452.00;;;12.12;60.78
40708;BME280;26392;42.696;23.350;2023-04-08T10:22:59;95449.34;;;11.58;63.74
40708;BME280;26392;42.696;23.350;2023-04-08T10:27:59;95448.44;;;11.25;65.13
40708;BME280;26392;42.696;23.350;2023-04-08T10:32:50;95443.84;;;11.85;62.59
40708;BME280;26392;42.696;23.350;2023-04-08T10:35:15;95439.97;;;12.08;61.05
40708;BME280;26392;42.696;23.350;2023-04-08T10:37:42;95443.94;;;12.27;59.91
40708;BME280;26392;42.696;23.350;2023-04-08T10:40:18;95439.13;;;12.45;58.24
40708;BME280;26392;42.696;23.350;2023-04-08T10:42:43;95438.59;;;12.48;56.98
40708;BME280;26392;42.696;23.350;2023-04-08T10:45:09;95434.38;;;12.72;57.84
40708;BME280;26392;42.696;23.350;2023-04-08T10:47:34;95434.13;;;12.79;57.45
40708;BME280;26392;42.696;23.350;2023-04-08T10:50:11;95425.72;;;12.96;56.02
40708;BME280;26392;42.696;23.350;2023-04-08T10:52:48;95428.88;;;13.30;54.23
40708;BME280;26392;42.696;23.350;2023-04-08T10:55:14;95420.97;;;13.49;53.52
40708;BME280;26392;42.696;23.350;2023-04-08T10:57:41;95421.88;;;13.75;52.91
40708;BME280;26392;42.696;23.350;2023-04-08T11:00:09;95421.03;;;13.75;53.07
40708;BME280;26392;42.696;23.350;2023-04-08T11:02:38;95425.63;;;13.49;52.91
40708;BME280;26392;42.696;23.350;2023-04-08T11:05:03;95407.84;;;13.46;52.39
40708;BME280;26392;42.696;23.350;2023-04-08T11:07:29;95407.88;;;13.56;52.86
40708;BME280;26392;42.696;23.350;2023-04-08T11:09:54;95398.50;;;13.32;54.13
40708;BME280;26392;42.696;23.350;2023-04-08T11:12:21;95402.81;;;13.17;55.13
40708;BME280;26392;42.696;23.350;2023-04-08T11:14:47;95393.06;;;13.37;53.78
40708;BME280;26392;42.696;23.350;2023-04-08T11:17:14;95396.34;;;13.44;53.20
40708;BME280;26392;42.696;23.350;2023-04-08T11:19:40;95397.50;;;13.79;52.11
40708;BME280;26392;42.696;23.350;2023-04-08T11:22:06;95398.59;;;13.98;51.69
40708;BME280;26392;42.696;23.350;2023-04-08T11:24:34;95385.97;;;14.02;52.65
40708;BME280;26392;42.696;23.350;2023-04-08T11:27:02;95377.97;;;14.42;51.06
40708;BME280;26392;42.696;23.350;2023-04-08T11:29:29;95376.84;;;14.63;48.78
40708;BME280;26392;42.696;23.350;2023-04-08T11:31:55;95370.88;;;15.16;47.77
40708;BME280;26392;42.696;23.350;2023-04-08T11:34:24;95375.09;;;14.93;45.28
40708;BME280;26392;42.696;23.350;2023-04-08T11:36:50;95369.34;;;14.89;45.43
40708;BME280;26392;42.696;23.350;2023-04-08T11:39:16;95370.13;;;15.00;45.28
40708;BME280;26392;42.696;23.350;2023-04-08T11:41:41;95367.81;;;15.17;45.63
40708;BME280;26392;42.696;23.350;2023-04-08T11:44:08;95370.66;;;15.52;45.40
40708;BME280;26392;42.696;23.350;2023-04-08T11:46:34;95348.91;;;15.60;45.53
40708;BME280;26392;42.696;23.350;2023-04-08T11:49:04;95352.69;;;15.64;44.35
40708;BME280;26392;42.696;23.350;2023-04-08T11:51:31;95355.06;;;15.42;44.34
40708;BME280;26392;42.696;23.350;2023-04-08T11:53:58;95337.66;;;15.12;44.89
40708;BME280;26392;42.696;23.350;2023-04-08T11:56:24;95349.47;;;15.13;45.91
40708;BME280;26392;42.696;23.350;2023-04-08T11:58:50;95353.25;;;15.27;45.11
40708;BME280;26392;42.696;23.350;2023-04-08T12:01:16;95343.72;;;15.09;44.15
40708;BME280;26392;42.696;23.350;2023-04-08T12:03:58;95341.91;;;14.84;44.12
40708;BME280;26392;42.696;23.350;2023-04-08T12:06:24;95338.13;;;14.75;44.13
40708;BME280;26392;42.696;23.350;2023-04-08T12:08:51;95340.81;;;14.90;44.20
40708;BME280;26392;42.696;23.350;2023-04-08T12:11:16;95331.03;;;14.64;45.34
40708;BME280;26392;42.696;23.350;2023-04-08T12:13:42;95338.38;;;14.84;45.61
40708;BME280;26392;42.696;23.350;2023-04-08T12:16:07;95313.97;;;14.87;45.41
40708;BME280;26392;42.696;23.350;2023-04-08T12:18:33;95328.69;;;15.02;44.84
40708;BME280;26392;42.696;23.350;2023-04-08T12:20:58;95324.59;;;14.94;45.07
40708;BME280;26392;42.696;23.350;2023-04-08T12:23:24;95330.06;;;15.04;45.05
40708;BME280;26392;42.696;23.350;2023-04-08T12:25:49;95335.38;;;15.30;44.57
40708;BME280;26392;42.696;23.350;2023-04-08T12:28:14;95332.31;;;15.36;43.90
40708;BME280;26392;42.696;23.350;2023-04-08T12:30:40;95340.47;;;15.52;43.35
40708;BME280;26392;42.696;23.350;2023-04-08T12:33:05;95333.94;;;15.37;42.83
40708;BME280;26392;42.696;23.350;2023-04-08T12:35:31;95326.16;;;15.10;43.30
40708;BME280;26392;42.696;23.350;2023-04-08T12:37:56;95327.59;;;14.97;43.55
40708;BME280;26392;42.696;23.350;2023-04-08T12:40:22;95321.47;;;14.61;44.68
40708;BME280;26392;42.696;23.350;2023-04-08T12:42:47;95316.03;;;14.41;45.47
40708;BME280;26392;42.696;23.350;2023-04-08T12:45:13;95321.03;;;14.13;46.38
40708;BME280;26392;42.696;23.350;2023-04-08T12:47:39;95324.59;;;14.08;46.37
40708;BME280;26392;42.696;23.350;2023-04-08T12:50:04;95326.28;;;13.84;47.09
40708;BME280;26392;42.696;23.350;2023-04-08T12:52:30;95327.09;;;13.74;47.94
40708;BME280;26392;42.696;23.350;2023-04-08T12:54:56;95329.03;;;13.58;49.18
40708;BME280;26392;42.696;23.350;2023-04-08T12:57:21;95335.03;;;13.55;50.30
40708;BME280;26392;42.696;23.350;2023-04-08T12:59:47;95329.56;;;13.65;50.74
40708;BME280;26392;42.696;23.350;2023-04-08T13:02:13;95327.94;;;13.54;51.03
40708;BME280;26392;42.696;23.350;2023-04-08T13:04:38;95336.97;;;13.65;50.82
40708;BME280;26392;42.696;23.350;2023-04-08T13:07:03;95336.97;;;13.70;50.91